sensor_id;sensor_type;location;lat;lon;timestamp;pressure;altitude;pressure_sealevel;temperature;humidity
42587;BME280;28216;53.362;-6.288;2022-09-27T00:02:04;100561.00;;;11.84;98.10
42587;BME280;28216;53.362;-6.288;2022-09-27T00:04:29;100562.00;;;11.83;98.30
42587;BME280;28216;53.362;-6.288;2022-09-27T00:06:55;100564.63;;;11.83;98.58
42587;BME280;28216;53.362;-6.288;2022-09-27T00:09:20;100558.72;;;11.81;98.75
42587;BME280;28216;53.362;-6.288;2022-09-27T00:11:46;100552.66;;;11.80;98.74
42587;BME280;28216;53.362;-6.288;2022-09-27T00:14:13;100567.41;;;11.81;98.71
42587;BME280;28216;53.362;-6.288;2022-09-27T00:16:40;100567.41;;;11.81;98.69
42587;BME280;28216;53.362;-6.288;2022-09-27T00:19:09;100554.63;;;11.78;98.50
42587;BME280;28216;53.362;-6.288;2022-09-27T00:21:35;100546.41;;;11.73;98.95
42587;BME280;28216;53.362;-6.288;2022-09-27T00:24:01;100555.28;;;11.72;98.78
42587;BME280;28216;53.362;-6.288;2022-09-27T00:26:27;100556.28;;;11.71;99.32
42587;BME280;28216;53.362;-6.288;2022-09-27T00:28:54;100554.81;;;11.68;99.43
42587;BME280;28216;53.362;-6.288;2022-09-27T00:33:51;100559.53;;;11.73;99.36
42587;BME280;28216;53.362;-6.288;2022-09-27T00:36:18;100559.38;;;11.74;99.27
42587;BME280;28216;53.362;-6.288;2022-09-27T00:38:44;100554.78;;;11.76;99.39
42587;BME280;28216;53.362;-6.288;2022-09-27T00:41:14;100541.81;;;11.75;99.53
42587;BME280;28216;53.362;-6.288;2022-09-27T00:43:55;100541.00;;;11.74;99.71
42587;BME280;28216;53.362;-6.288;2022-09-27T00:46:32;100540.34;;;11.72;99.63
42587;BME280;28216;53.362;-6.288;2022-09-27T00:51:58;100530.66;;;11.73;99.66
42587;BME280;28216;53.362;-6.288;2022-09-27T00:54:28;100533.09;;;11.74;100.00
42587;BME280;28216;53.362;-6.288;2022-09-27T00:56:54;100523.94;;;11.78;100.00
42587;BME280;28216;53.362;-6.288;2022-09-27T00:59:35;100528.84;;;11.82;100.00
42587;BME280;28216;53.362;-6.288;2022-09-27T01:02:04;100537.34;;;11.84;100.00
42587;BME280;28216;53.362;-6.288;2022-09-27T01:04:31;100537.00;;;11.87;99.77
42587;BME280;28216;53.362;-6.288;2022-09-27T01:06:58;100536.84;;;11.88;99.95
42587;BME280;28216;53.362;-6.288;2022-09-27T01:09:24;100528.47;;;11.93;99.86
42587;BME280;28216;53.362;-6.288;2022-09-27T01:14:50;100523.22;;;11.93;100.00
42587;BME280;28216;53.362;-6.288;2022-09-27T01:20:44;100527.16;;;11.89;100.00
42587;BME280;28216;53.362;-6.288;2022-09-27T01:24:05;100517.63;;;11.88;100.00
42587;BME280;28216;53.362;-6.288;2022-09-27T01:31:21;100511.72;;;11.86;100.00
42587;BME280;28216;53.362;-6.288;2022-09-27T01:36:43;100497.94;;;11.92;100.00
42587;BME280;28216;53.362;-6.288;2022-09-27T01:39:54;100496.13;;;11.92;100.00
42587;BME280;28216;53.362;-6.288;2022-09-27T01:42:27;100485.63;;;11.92;100.00
42587;BME280;28216;53.362;-6.288;2022-09-27T01:45:00;100470.84;;;11.91;100.00
42587;BME280;28216;53.362;-6.288;2022-09-27T01:47:43;100476.09;;;11.91;100.00
42587;BME280;28216;53.362;-6.288;2022-09-27T01:50:14;100476.56;;;11.95;100.00
42587;BME280;28216;53.362;-6.288;2022-09-27T01:55:14;100476.38;;;11.96;100.00
42587;BME280;28216;53.362;-6.288;2022-09-27T01:57:45;100471.13;;;11.96;100.00
42587;BME280;28216;53.362;-6.288;2022-09-27T02:00:13;100461.63;;;11.95;100.00
42587;BME280;28216;53.362;-6.288;2022-09-27T02:02:43;100450.47;;;11.93;100.00
42587;BME280;28216;53.362;-6.288;2022-09-27T02:05:11;100447.03;;;11.93;100.00
42587;BME280;28216;53.362;-6.288;2022-09-27T02:07:54;100447.66;;;11.95;100.00
42587;BME280;28216;53.362;-6.288;2022-09-27T02:10:24;100449.66;;;11.93;99.95
42587;BME280;28216;53.362;-6.288;2022-09-27T02:12:59;100441.94;;;11.91;100.00
42587;BME280;28216;53.362;-6.288;2022-09-27T02:15:33;100436.69;;;11.91;99.78
42587;BME280;28216;53.362;-6.288;2022-09-27T02:18:14;100444.41;;;11.93;99.51
42587;BME280;28216;53.362;-6.288;2022-09-27T02:20:52;100440.94;;;11.92;99.34
42587;BME280;28216;53.362;-6.288;2022-09-27T02:26:17;100453.91;;;11.94;99.36
42587;BME280;28216;53.362;-6.288;2022-09-27T02:29:06;100441.59;;;11.94;99.11
42587;BME280;28216;53.362;-6.288;2022-09-27T02:31:32;100423.38;;;11.93;99.32
42587;BME280;28216;53.362;-6.288;2022-09-27T02:34:15;100423.38;;;11.93;99.32
42587;BME280;28216;53.362;-6.288;2022-09-27T02:36:42;100412.88;;;11.93;99.29
42587;BME280;28216;53.362;-6.288;2022-09-27T02:39:08;100415.84;;;11.90;99.57
42587;BME280;28216;53.362;-6.288;2022-09-27T02:41:33;100420.44;;;11.88;99.62
42587;BME280;28216;53.362;-6.288;2022-09-27T02:44:02;100427.19;;;11.90;99.39
42587;BME280;28216;53.362;-6.288;2022-09-27T02:46:47;100438.31;;;11.92;99.41
42587;BME280;28216;53.362;-6.288;2022-09-27T02:49:40;100427.00;;;11.92;99.43
42587;BME280;28216;53.362;-6.288;2022-09-27T02:55:09;100407.97;;;11.90;99.51
42587;BME280;28216;53.362;-6.288;2022-09-27T03:00:38;100409.09;;;11.87;100.00
42587;BME280;28216;53.362;-6.288;2022-09-27T03:03:16;100412.72;;;11.86;100.00
42587;BME280;28216;53.362;-6.288;2022-09-27T03:06:13;100401.06;;;11.89;100.00
42587;BME280;28216;53.362;-6.288;2022-09-27T03:08:38;100398.41;;;11.89;100.00
42587;BME280;28216;53.362;-6.288;2022-09-27T03:11:04;100390.41;;;11.90;100.00
42587;BME280;28216;53.362;-6.288;2022-09-27T03:13:30;100391.22;;;11.91;100.00
42587;BME280;28216;53.362;-6.288;2022-09-27T03:15:55;100391.69;;;11.94;100.00
42587;BME280;28216;53.362;-6.288;2022-09-27T03:18:21;100381.97;;;11.95;99.53
42587;BME280;28216;53.362;-6.288;2022-09-27T03:20:47;100381.00;;;11.96;99.62
42587;BME280;28216;53.362;-6.288;2022-09-27T03:23:12;100380.81;;;11.97;99.40
42587;BME280;28216;53.362;-6.288;2022-09-27T03:25:38;100376.38;;;11.98;99.35
42587;BME280;28216;53.362;-6.288;2022-09-27T03:28:04;100371.94;;;11.98;98.95
42587;BME280;28216;53.362;-6.288;2022-09-27T03:30:30;100360.06;;;12.02;98.99
42587;BME280;28216;53.362;-6.288;2022-09-27T03:32:55;100362.06;;;12.00;98.83
42587;BME280;28216;53.362;-6.288;2022-09-27T03:35:21;100359.09;;;12.03;98.73
42587;BME280;28216;53.362;-6.288;2022-09-27T03:37:46;100356.91;;;12.07;98.64
42587;BME280;28216;53.362;-6.288;2022-09-27T03:40:12;100357.72;;;12.07;98.27
42587;BME280;28216;53.362;-6.288;2022-09-27T03:42:38;100353.09;;;12.09;98.22
42587;BME280;28216;53.362;-6.288;2022-09-27T03:45:04;100361.16;;;12.08;97.87
42587;BME280;28216;53.362;-6.288;2022-09-27T03:47:29;100358.38;;;12.09;97.86
42587;BME280;28216;53.362;-6.288;2022-09-27T03:49:55;100357.38;;;12.11;97.57
42587;BME280;28216;53.362;-6.288;2022-09-27T03:52:20;100345.03;;;12.11;97.33
42587;BME280;28216;53.362;-6.288;2022-09-27T03:54:46;100339.63;;;12.13;97.28
42587;BME280;28216;53.362;-6.288;2022-09-27T03:57:12;100346.69;;;12.12;97.37
42587;BME280;28216;53.362;-6.288;2022-09-27T03:59:37;100345.22;;;12.09;97.22
42587;BME280;28216;53.362;-6.288;2022-09-27T04:02:03;100342.59;;;12.09;97.20
42587;BME280;28216;53.362;-6.288;2022-09-27T04:04:28;100346.84;;;12.11;97.30
42587;BME280;28216;53.362;-6.288;2022-09-27T04:06:54;100344.06;;;12.12;97.13
42587;BME280;28216;53.362;-6.288;2022-09-27T04:09:21;100342.25;;;12.13;97.02
42587;BME280;28216;53.362;-6.288;2022-09-27T04:11:46;100333.53;;;12.12;96.87
42587;BME280;28216;53.362;-6.288;2022-09-27T04:14:13;100328.66;;;12.09;96.99
42587;BME280;28216;53.362;-6.288;2022-09-27T04:16:38;100345.03;;;12.11;96.83
42587;BME280;28216;53.362;-6.288;2022-09-27T04:19:07;100347.03;;;12.09;96.66
42587;BME280;28216;53.362;-6.288;2022-09-27T04:21:33;100338.78;;;12.12;96.60
42587;BME280;28216;53.362;-6.288;2022-09-27T04:23:59;100342.06;;;12.14;96.32
42587;BME280;28216;53.362;-6.288;2022-09-27T04:26:25;100344.50;;;12.16;96.32
42587;BME280;28216;53.362;-6.288;2022-09-27T04:28:51;100351.41;;;12.17;95.99
42587;BME280;28216;53.362;-6.288;2022-09-27T04:31:17;100340.44;;;12.13;95.88
42587;BME280;28216;53.362;-6.288;2022-09-27T04:33:43;100334.72;;;12.09;96.10
42587;BME280;28216;53.362;-6.288;2022-09-27T04:36:14;100331.44;;;12.07;95.88
42587;BME280;28216;53.362;-6.288;2022-09-27T04:38:58;100328.53;;;12.02;95.77
42587;BME280;28216;53.362;-6.288;2022-09-27T04:41:25;100330.06;;;11.97;95.96
42587;BME280;28216;53.362;-6.288;2022-09-27T04:43:55;100323.72;;;11.91;96.22
42587;BME280;28216;53.362;-6.288;2022-09-27T04:46:22;100326.84;;;11.87;96.28
42587;BME280;28216;53.362;-6.288;2022-09-27T04:48:49;100329.47;;;11.87;96.54
42587;BME280;28216;53.362;-6.288;2022-09-27T04:51:15;100342.28;;;11.90;96.29
42587;BME280;28216;53.362;-6.288;2022-09-27T04:53:42;100338.31;;;11.94;96.06
42587;BME280;28216;53.362;-6.288;2022-09-27T04:56:08;100342.56;;;11.95;96.01
42587;BME280;28216;53.362;-6.288;2022-09-27T04:58:34;100338.13;;;11.95;95.74
42587;BME280;28216;53.362;-6.288;2022-09-27T05:01:00;100332.53;;;11.98;95.76
42587;BME280;28216;53.362;-6.288;2022-09-27T05:03:28;100347.66;;;11.96;95.77
42587;BME280;28216;53.362;-6.288;2022-09-27T05:05:54;100336.03;;;11.91;95.88
42587;BME280;28216;53.362;-6.288;2022-09-27T05:08:20;100335.38;;;11.89;95.82
42587;BME280;28216;53.362;-6.288;2022-09-27T05:10:46;100334.75;;;11.87;95.77
42587;BME280;28216;53.362;-6.288;2022-09-27T05:13:12;100333.09;;;11.86;96.05
42587;BME280;28216;53.362;-6.288;2022-09-27T05:15:39;100336.72;;;11.85;96.08
42587;BME280;28216;53.362;-6.288;2022-09-27T05:18:05;100334.91;;;11.85;96.16
42587;BME280;28216;53.362;-6.288;2022-09-27T05:20:32;100337.38;;;11.87;96.07
42587;BME280;28216;53.362;-6.288;2022-09-27T05:22:59;100338.00;;;11.89;96.32
42587;BME280;28216;53.362;-6.288;2022-09-27T05:25:24;100339.81;;;11.88;96.33
42587;BME280;28216;53.362;-6.288;2022-09-27T05:27:50;100334.75;;;11.87;96.53
42587;BME280;28216;53.362;-6.288;2022-09-27T05:30:16;100331.13;;;11.88;96.28
42587;BME280;28216;53.362;-6.288;2022-09-27T05:32:42;100331.47;;;11.85;96.40
42587;BME280;28216;53.362;-6.288;2022-09-27T05:35:08;100327.22;;;11.84;96.46
42587;BME280;28216;53.362;-6.288;2022-09-27T05:37:34;100329.84;;;11.84;96.51
42587;BME280;28216;53.362;-6.288;2022-09-27T05:39:59;100334.09;;;11.85;96.45
42587;BME280;28216;53.362;-6.288;2022-09-27T05:42:25;100331.00;;;11.81;96.45
42587;BME280;28216;53.362;-6.288;2022-09-27T05:44:50;100324.13;;;11.80;96.57
42587;BME280;28216;53.362;-6.288;2022-09-27T05:47:16;100331.81;;;11.82;96.67
42587;BME280;28216;53.362;-6.288;2022-09-27T05:49:42;100328.38;;;11.81;96.76
42587;BME280;28216;53.362;-6.288;2022-09-27T05:52:07;100325.75;;;11.81;96.94
42587;BME280;28216;53.362;-6.288;2022-09-27T05:54:32;100326.56;;;11.82;97.06
42587;BME280;28216;53.362;-6.288;2022-09-27T05:56:58;100321.97;;;11.84;96.94
42587;BME280;28216;53.362;-6.288;2022-09-27T05:59:25;100317.69;;;11.83;97.19
42587;BME280;28216;53.362;-6.288;2022-09-27T06:01:50;100309.53;;;11.77;97.49
42587;BME280;28216;53.362;-6.288;2022-09-27T06:04:16;100314.94;;;11.76;97.49
42587;BME280;28216;53.362;-6.288;2022-09-27T06:06:42;100316.09;;;11.73;97.59
42587;BME280;28216;53.362;-6.288;2022-09-27T06:09:15;100306.94;;;11.69;97.92
42587;BME280;28216;53.362;-6.288;2022-09-27T06:11:41;100301.41;;;11.64;97.97
42587;BME280;28216;53.362;-6.288;2022-09-27T06:14:10;100297.34;;;11.62;98.24
42587;BME280;28216;53.362;-6.288;2022-09-27T06:16:35;100300.66;;;11.56;98.55
42587;BME280;28216;53.362;-6.288;2022-09-27T06:19:01;100295.94;;;11.51;98.81
42587;BME280;28216;53.362;-6.288;2022-09-27T06:21:28;100302.72;;;11.45;99.29
42587;BME280;28216;53.362;-6.288;2022-09-27T06:23:55;100303.88;;;11.43;99.69
42587;BME280;28216;53.362;-6.288;2022-09-27T06:26:21;100302.44;;;11.40;100.00
42587;BME280;28216;53.362;-6.288;2022-09-27T06:28:47;100301.44;;;11.41;100.00
42587;BME280;28216;53.362;-6.288;2022-09-27T06:31:12;100307.16;;;11.45;100.00
42587;BME280;28216;53.362;-6.288;2022-09-27T06:33:38;100305.00;;;11.49;100.00
42587;BME280;28216;53.362;-6.288;2022-09-27T06:36:05;100307.25;;;11.52;100.00
42587;BME280;28216;53.362;-6.288;2022-09-27T06:38:31;100302.00;;;11.52;100.00
42587;BME280;28216;53.362;-6.288;2022-09-27T06:41:00;100311.53;;;11.53;100.00
42587;BME280;28216;53.362;-6.288;2022-09-27T06:43:26;100304.94;;;11.57;100.00
42587;BME280;28216;53.362;-6.288;2022-09-27T06:45:51;100315.88;;;11.60;100.00
42587;BME280;28216;53.362;-6.288;2022-09-27T06:48:17;100311.91;;;11.64;100.00
42587;BME280;28216;53.362;-6.288;2022-09-27T06:50:44;100309.13;;;11.66;100.00
42587;BME280;28216;53.362;-6.288;2022-09-27T06:53:12;100308.75;;;11.69;100.00
42587;BME280;28216;53.362;-6.288;2022-09-27T06:55:38;100310.03;;;11.73;100.00
42587;BME280;28216;53.362;-6.288;2022-09-27T06:58:04;100306.91;;;11.77;100.00
42587;BME280;28216;53.362;-6.288;2022-09-27T07:00:50;100301.13;;;11.82;100.00
42587;BME280;28216;53.362;-6.288;2022-09-27T07:03:17;100298.78;;;11.87;100.00
42587;BME280;28216;53.362;-6.288;2022-09-27T07:05:42;100304.53;;;11.91;100.00
42587;BME280;28216;53.362;-6.288;2022-09-27T07:08:18;100304.97;;;11.94;100.00
42587;BME280;28216;53.362;-6.288;2022-09-27T07:10:43;100296.91;;;11.96;100.00
42587;BME280;28216;53.362;-6.288;2022-09-27T07:13:10;100287.84;;;11.98;100.00
42587;BME280;28216;53.362;-6.288;2022-09-27T07:15:37;100299.81;;;12.01;100.00
42587;BME280;28216;53.362;-6.288;2022-09-27T07:18:05;100302.09;;;12.04;100.00
42587;BME280;28216;53.362;-6.288;2022-09-27T07:20:32;100300.28;;;12.04;100.00
42587;BME280;28216;53.362;-6.288;2022-09-27T07:22:59;100292.84;;;12.08;100.00
42587;BME280;28216;53.362;-6.288;2022-09-27T07:25:25;100291.84;;;12.09;99.96
42587;BME280;28216;53.362;-6.288;2022-09-27T07:27:51;100296.13;;;12.10;100.00
42587;BME280;28216;53.362;-6.288;2022-09-27T07:30:18;100304.44;;;12.14;99.78
42587;BME280;28216;53.362;-6.288;2022-09-27T07:32:44;100307.91;;;12.14;100.00
42587;BME280;28216;53.362;-6.288;2022-09-27T07:35:10;100308.72;;;12.15;99.83
42587;BME280;28216;53.362;-6.288;2022-09-27T07:37:39;100302.47;;;12.16;100.00
42587;BME280;28216;53.362;-6.288;2022-09-27T07:40:06;100298.13;;;12.23;99.58
42587;BME280;28216;53.362;-6.288;2022-09-27T07:42:34;100290.69;;;12.26;99.38
42587;BME280;28216;53.362;-6.288;2022-09-27T07:45:04;100285.50;;;12.33;99.22
42587;BME280;28216;53.362;-6.288;2022-09-27T07:47:31;100282.16;;;12.39;99.04
42587;BME280;28216;53.362;-6.288;2022-09-27T07:49:56;100282.59;;;12.43;98.79
42587;BME280;28216;53.362;-6.288;2022-09-27T07:52:22;100283.88;;;12.47;98.83
42587;BME280;28216;53.362;-6.288;2022-09-27T07:54:50;100275.44;;;12.51;98.57
42587;BME280;28216;53.362;-6.288;2022-09-27T07:57:16;100275.69;;;12.56;98.51
42587;BME280;28216;53.362;-6.288;2022-09-27T07:59:41;100279.78;;;12.59;98.40
42587;BME280;28216;53.362;-6.288;2022-09-27T08:02:16;100281.03;;;12.63;98.17
42587;BME280;28216;53.362;-6.288;2022-09-27T08:04:42;100284.31;;;12.65;98.06
42587;BME280;28216;53.362;-6.288;2022-09-27T08:07:11;100289.41;;;12.66;98.09
42587;BME280;28216;53.362;-6.288;2022-09-27T08:09:37;100285.59;;;12.69;97.88
42587;BME280;28216;53.362;-6.288;2022-09-27T08:12:03;100283.22;;;12.74;97.55
42587;BME280;28216;53.362;-6.288;2022-09-27T08:14:29;100288.09;;;12.77;97.31
42587;BME280;28216;53.362;-6.288;2022-09-27T08:16:55;100286.09;;;12.79;97.17
42587;BME280;28216;53.362;-6.288;2022-09-27T08:19:20;100285.09;;;12.80;97.13
42587;BME280;28216;53.362;-6.288;2022-09-27T08:21:46;100278.66;;;12.83;97.24
42587;BME280;28216;53.362;-6.288;2022-09-27T08:24:12;100288.63;;;12.87;96.78
42587;BME280;28216;53.362;-6.288;2022-09-27T08:26:38;100289.06;;;12.91;96.72
42587;BME280;28216;53.362;-6.288;2022-09-27T08:29:03;100280.63;;;12.95;96.25
42587;BME280;28216;53.362;-6.288;2022-09-27T08:31:29;100271.97;;;13.01;96.17
42587;BME280;28216;53.362;-6.288;2022-09-27T08:33:54;100274.88;;;13.07;95.42
42587;BME280;28216;53.362;-6.288;2022-09-27T08:36:21;100264.41;;;13.13;95.43
42587;BME280;28216;53.362;-6.288;2022-09-27T08:38:48;100270.13;;;13.17;94.99
42587;BME280;28216;53.362;-6.288;2022-09-27T08:44:30;100254.28;;;13.31;93.65
42587;BME280;28216;53.362;-6.288;2022-09-27T08:49:34;100254.66;;;13.50;92.67
42587;BME280;28216;53.362;-6.288;2022-09-27T08:52:00;100255.97;;;13.60;92.29
42587;BME280;28216;53.362;-6.288;2022-09-27T08:54:30;100260.66;;;13.65;91.82
42587;BME280;28216;53.362;-6.288;2022-09-27T08:57:01;100255.38;;;13.65;91.50
42587;BME280;28216;53.362;-6.288;2022-09-27T08:59:34;100256.19;;;13.65;91.29
42587;BME280;28216;53.362;-6.288;2022-09-27T09:02:03;100260.59;;;13.58;91.29
42587;BME280;28216;53.362;-6.288;2022-09-27T09:04:35;100263.63;;;13.55;90.85
42587;BME280;28216;53.362;-6.288;2022-09-27T09:09:52;100262.19;;;13.53;91.08
42587;BME280;28216;53.362;-6.288;2022-09-27T09:12:33;100254.09;;;13.54;90.82
42587;BME280;28216;53.362;-6.288;2022-09-27T09:33:58;100256.97;;;13.87;89.97
42587;BME280;28216;53.362;-6.288;2022-09-27T09:36:34;100255.56;;;13.91;89.72
42587;BME280;28216;53.362;-6.288;2022-09-27T09:39:15;100259.25;;;13.97;89.51
42587;BME280;28216;53.362;-6.288;2022-09-27T09:42:08;100257.47;;;14.04;89.32
42587;BME280;28216;53.362;-6.288;2022-09-27T09:50:16;100246.91;;;14.04;89.14
42587;BME280;28216;53.362;-6.288;2022-09-27T09:52:56;100229.72;;;14.08;88.91
42587;BME280;28216;53.362;-6.288;2022-09-27T09:55:27;100234.22;;;14.14;88.47
42587;BME280;28216;53.362;-6.288;2022-09-27T10:00:46;100227.56;;;14.18;88.03
42587;BME280;28216;53.362;-6.288;2022-09-27T10:03:12;100233.25;;;14.22;87.83
42587;BME280;28216;53.362;-6.288;2022-09-27T10:05:37;100232.66;;;14.26;87.43
42587;BME280;28216;53.362;-6.288;2022-09-27T10:08:16;100233.47;;;14.27;87.20
42587;BME280;28216;53.362;-6.288;2022-09-27T10:10:42;100226.78;;;14.24;87.26
42587;BME280;28216;53.362;-6.288;2022-09-27T10:13:17;100226.53;;;14.19;87.03
42587;BME280;28216;53.362;-6.288;2022-09-27T10:15:55;100224.31;;;14.16;86.75
42587;BME280;28216;53.362;-6.288;2022-09-27T10:18:25;100221.28;;;14.19;86.98
42587;BME280;28216;53.362;-6.288;2022-09-27T10:20:56;100221.28;;;14.19;86.90
42587;BME280;28216;53.362;-6.288;2022-09-27T10:23:23;100225.94;;;14.17;86.90
42587;BME280;28216;53.362;-6.288;2022-09-27T10:25:56;100220.84;;;14.16;86.73
42587;BME280;28216;53.362;-6.288;2022-09-27T10:31:11;100217.34;;;14.09;86.81
42587;BME280;28216;53.362;-6.288;2022-09-27T10:33:50;100211.06;;;14.10;86.87
42587;BME280;28216;53.362;-6.288;2022-09-27T10:36:26;100206.41;;;14.12;87.25
42587;BME280;28216;53.362;-6.288;2022-09-27T10:38:54;100211.25;;;14.08;87.44
42587;BME280;28216;53.362;-6.288;2022-09-27T10:41:24;100203.34;;;14.08;87.47
42587;BME280;28216;53.362;-6.288;2022-09-27T10:43:50;100209.00;;;14.05;87.68
42587;BME280;28216;53.362;-6.288;2022-09-27T10:46:30;100209.81;;;14.06;87.94
42587;BME280;28216;53.362;-6.288;2022-09-27T10:49:24;100206.38;;;14.05;88.06
42587;BME280;28216;53.362;-6.288;2022-09-27T10:51:53;100195.22;;;14.03;88.60
42587;BME280;28216;53.362;-6.288;2022-09-27T10:54:26;100188.91;;;13.97;88.52
42587;BME280;28216;53.362;-6.288;2022-09-27T10:57:03;100193.97;;;13.99;88.75
42587;BME280;28216;53.362;-6.288;2022-09-27T10:59:33;100196.59;;;13.99;88.60
42587;BME280;28216;53.362;-6.288;2022-09-27T11:02:00;100190.94;;;14.02;88.66
42587;BME280;28216;53.362;-6.288;2022-09-27T11:04:32;100180.44;;;14.09;88.87
42587;BME280;28216;53.362;-6.288;2022-09-27T11:07:13;100176.59;;;14.11;88.84
42587;BME280;28216;53.362;-6.288;2022-09-27T11:09:51;100164.41;;;14.10;89.00
42587;BME280;28216;53.362;-6.288;2022-09-27T11:12:19;100173.34;;;14.09;89.01
42587;BME280;28216;53.362;-6.288;2022-09-27T11:15:04;100165.22;;;14.04;88.92
42587;BME280;28216;53.362;-6.288;2022-09-27T11:20:30;100151.19;;;13.97;88.52
42587;BME280;28216;53.362;-6.288;2022-09-27T11:23:21;100141.06;;;14.00;88.04
42587;BME280;28216;53.362;-6.288;2022-09-27T11:34:27;100147.91;;;13.88;87.45
42587;BME280;28216;53.362;-6.288;2022-09-27T11:48:02;100146.84;;;13.83;87.23
42587;BME280;28216;53.362;-6.288;2022-09-27T12:10:13;100132.69;;;14.38;84.24
42587;BME280;28216;53.362;-6.288;2022-09-27T12:12:42;100137.00;;;14.46;84.07
42587;BME280;28216;53.362;-6.288;2022-09-27T12:15:19;100133.16;;;14.48;83.70
42587;BME280;28216;53.362;-6.288;2022-09-27T12:17:49;100148.97;;;14.48;83.26
42587;BME280;28216;53.362;-6.288;2022-09-27T12:20:23;100140.25;;;14.48;82.86
42587;BME280;28216;53.362;-6.288;2022-09-27T12:23:07;100140.66;;;14.51;82.07
42587;BME280;28216;53.362;-6.288;2022-09-27T12:25:40;100138.44;;;14.48;81.86
42587;BME280;28216;53.362;-6.288;2022-09-27T12:29:04;100133.56;;;14.45;81.54
42587;BME280;28216;53.362;-6.288;2022-09-27T12:31:33;100141.06;;;14.48;81.45
42587;BME280;28216;53.362;-6.288;2022-09-27T12:34:13;100134.78;;;14.49;81.43
42587;BME280;28216;53.362;-6.288;2022-09-27T12:36:44;100143.50;;;14.43;81.17
42587;BME280;28216;53.362;-6.288;2022-09-27T12:41:51;100138.75;;;14.25;81.38
42587;BME280;28216;53.362;-6.288;2022-09-27T12:44:20;100135.66;;;14.15;81.58
42587;BME280;28216;53.362;-6.288;2022-09-27T12:49:33;100119.59;;;14.10;81.40
42587;BME280;28216;53.362;-6.288;2022-09-27T12:52:04;100120.47;;;14.17;81.38
42587;BME280;28216;53.362;-6.288;2022-09-27T12:58:06;100121.75;;;14.41;80.48
42587;BME280;28216;53.362;-6.288;2022-09-27T13:00:32;100106.59;;;14.50;80.12
42587;BME280;28216;53.362;-6.288;2022-09-27T13:06:40;100112.28;;;14.60;79.64
42587;BME280;28216;53.362;-6.288;2022-09-27T13:12:11;100112.69;;;14.70;79.80
42587;BME280;28216;53.362;-6.288;2022-09-27T13:17:33;100110.84;;;14.64;80.03
42587;BME280;28216;53.362;-6.288;2022-09-27T13:23:01;100118.16;;;14.49;80.68
42587;BME280;28216;53.362;-6.288;2022-09-27T13:31:06;100093.94;;;14.39;81.56
42587;BME280;28216;53.362;-6.288;2022-09-27T13:36:25;100092.75;;;14.41;82.02
42587;BME280;28216;53.362;-6.288;2022-09-27T13:49:44;100112.25;;;14.53;81.57
42587;BME280;28216;53.362;-6.288;2022-09-27T13:54:56;100093.19;;;14.51;81.49
42587;BME280;28216;53.362;-6.288;2022-09-27T14:00:26;100094.59;;;14.47;81.45
42587;BME280;28216;53.362;-6.288;2022-09-27T14:05:32;100088.72;;;14.45;81.25
42587;BME280;28216;53.362;-6.288;2022-09-27T14:08:00;100091.56;;;14.44;81.40
42587;BME280;28216;53.362;-6.288;2022-09-27T14:10:27;100083.84;;;14.42;81.37
42587;BME280;28216;53.362;-6.288;2022-09-27T14:12:54;100082.03;;;14.43;81.20
42587;BME280;28216;53.362;-6.288;2022-09-27T14:15:23;100084.66;;;14.49;81.02
42587;BME280;28216;53.362;-6.288;2022-09-27T14:17:50;100079.78;;;14.46;80.81
42587;BME280;28216;53.362;-6.288;2022-09-27T14:20:35;100078.16;;;14.45;80.61
42587;BME280;28216;53.362;-6.288;2022-09-27T14:23:24;100084.66;;;14.49;80.56
42587;BME280;28216;53.362;-6.288;2022-09-27T14:25:53;100083.06;;;14.55;80.51
42587;BME280;28216;53.362;-6.288;2022-09-27T14:28:25;100086.91;;;14.59;80.48
42587;BME280;28216;53.362;-6.288;2022-09-27T14:31:16;100083.88;;;14.62;80.05
42587;BME280;28216;53.362;-6.288;2022-09-27T14:33:43;100083.47;;;14.65;80.59
42587;BME280;28216;53.362;-6.288;2022-09-27T14:36:39;100084.28;;;14.59;79.94
42587;BME280;28216;53.362;-6.288;2022-09-27T14:39:33;100074.53;;;14.59;80.30
42587;BME280;28216;53.362;-6.288;2022-09-27T14:42:05;100074.72;;;14.58;80.29
42587;BME280;28216;53.362;-6.288;2022-09-27T14:44:31;100066.22;;;14.56;80.20
42587;BME280;28216;53.362;-6.288;2022-09-27T14:47:09;100069.66;;;14.50;79.78
42587;BME280;28216;53.362;-6.288;2022-09-27T14:50:06;100073.69;;;14.46;79.83
42587;BME280;28216;53.362;-6.288;2022-09-27T14:52:39;100070.06;;;14.47;79.84
42587;BME280;28216;53.362;-6.288;2022-09-27T14:55:11;100066.59;;;14.53;79.40
42587;BME280;28216;53.362;-6.288;2022-09-27T14:57:50;100064.19;;;14.58;79.56
42587;BME280;28216;53.362;-6.288;2022-09-27T15:00:31;100068.66;;;14.64;79.10
42587;BME280;28216;53.362;-6.288;2022-09-27T15:03:03;100055.25;;;14.66;79.23
42587;BME280;28216;53.362;-6.288;2022-09-27T15:05:41;100061.94;;;14.68;79.04
42587;BME280;28216;53.362;-6.288;2022-09-27T15:08:12;100054.44;;;14.65;79.42
42587;BME280;28216;53.362;-6.288;2022-09-27T15:10:40;100057.47;;;14.62;79.49
42587;BME280;28216;53.362;-6.288;2022-09-27T15:13:06;100055.25;;;14.59;79.59
42587;BME280;28216;53.362;-6.288;2022-09-27T15:15:42;100060.31;;;14.60;79.48
42587;BME280;28216;53.362;-6.288;2022-09-27T15:18:38;100062.75;;;14.62;79.45
42587;BME280;28216;53.362;-6.288;2022-09-27T15:21:06;100066.22;;;14.62;79.77
42587;BME280;28216;53.362;-6.288;2022-09-27T15:23:40;100069.88;;;14.68;79.21
42587;BME280;28216;53.362;-6.288;2022-09-27T15:26:14;100069.66;;;14.76;78.91
42587;BME280;28216;53.362;-6.288;2022-09-27T15:28:46;100064.19;;;14.78;78.78
42587;BME280;28216;53.362;-6.288;2022-09-27T15:31:17;100053.22;;;14.74;78.87
42587;BME280;28216;53.362;-6.288;2022-09-27T15:33:52;100059.72;;;14.72;78.51
42587;BME280;28216;53.362;-6.288;2022-09-27T15:39:15;100073.72;;;14.59;79.20